sensor_id;sensor_type;location;lat;lon;timestamp;P1;durP1;ratioP1;P2;durP2;ratioP2
43325;SDS011;28920;59.862;30.636;2023-01-20T00:01:38;52.35;;;25.10;;
43325;SDS011;28920;59.862;30.636;2023-01-20T00:04:08;49.45;;;22.45;;
43325;SDS011;28920;59.862;30.636;2023-01-20T00:06:35;52.00;;;23.70;;
43325;SDS011;28920;59.862;30.636;2023-01-20T00:09:04;43.28;;;23.23;;
43325;SDS011;28920;59.862;30.636;2023-01-20T00:11:32;41.40;;;20.95;;
43325;SDS011;28920;59.862;30.636;2023-01-20T00:14:00;54.33;;;23.83;;
43325;SDS011;28920;59.862;30.636;2023-01-20T00:16:27;44.38;;;21.85;;
43325;SDS011;28920;59.862;30.636;2023-01-20T00:18:57;54.25;;;25.70;;
43325;SDS011;28920;59.862;30.636;2023-01-20T00:21:24;47.72;;;24.63;;
43325;SDS011;28920;59.862;30.636;2023-01-20T00:23:51;48.03;;;23.90;;
43325;SDS011;28920;59.862;30.636;2023-01-20T00:26:20;45.97;;;21.02;;
43325;SDS011;28920;59.862;30.636;2023-01-20T00:28:48;46.70;;;21.92;;
43325;SDS011;28920;59.862;30.636;2023-01-20T00:31:17;46.72;;;21.55;;
43325;SDS011;28920;59.862;30.636;2023-01-20T00:33:45;45.17;;;22.05;;
43325;SDS011;28920;59.862;30.636;2023-01-20T00:36:13;42.47;;;22.15;;
43325;SDS011;28920;59.862;30.636;2023-01-20T00:38:41;43.53;;;21.77;;
43325;SDS011;28920;59.862;30.636;2023-01-20T00:41:09;44.03;;;21.90;;
43325;SDS011;28920;59.862;30.636;2023-01-20T00:43:37;48.13;;;22.33;;
43325;SDS011;28920;59.862;30.636;2023-01-20T00:46:05;42.45;;;19.83;;
43325;SDS011;28920;59.862;30.636;2023-01-20T00:48:33;43.00;;;19.85;;
43325;SDS011;28920;59.862;30.636;2023-01-20T00:51:00;43.80;;;21.25;;
43325;SDS011;28920;59.862;30.636;2023-01-20T00:53:28;48.55;;;21.33;;
43325;SDS011;28920;59.862;30.636;2023-01-20T00:55:56;49.55;;;20.73;;
43325;SDS011;28920;59.862;30.636;2023-01-20T00:58:23;49.03;;;21.33;;
43325;SDS011;28920;59.862;30.636;2023-01-20T01:00:52;46.13;;;23.30;;
43325;SDS011;28920;59.862;30.636;2023-01-20T01:03:20;41.58;;;20.27;;
43325;SDS011;28920;59.862;30.636;2023-01-20T01:05:48;37.50;;;20.00;;
43325;SDS011;28920;59.862;30.636;2023-01-20T01:08:15;45.92;;;22.65;;
43325;SDS011;28920;59.862;30.636;2023-01-20T01:10:42;38.10;;;19.17;;
43325;SDS011;28920;59.862;30.636;2023-01-20T01:13:10;39.88;;;21.15;;
43325;SDS011;28920;59.862;30.636;2023-01-20T01:15:37;46.17;;;22.00;;
43325;SDS011;28920;59.862;30.636;2023-01-20T01:18:06;35.78;;;18.10;;
43325;SDS011;28920;59.862;30.636;2023-01-20T01:20:33;41.80;;;20.05;;
43325;SDS011;28920;59.862;30.636;2023-01-20T01:23:01;41.25;;;17.65;;
43325;SDS011;28920;59.862;30.636;2023-01-20T01:25:28;34.58;;;16.73;;
43325;SDS011;28920;59.862;30.636;2023-01-20T01:27:56;37.15;;;17.48;;
43325;SDS011;28920;59.862;30.636;2023-01-20T01:30:23;34.72;;;16.62;;
43325;SDS011;28920;59.862;30.636;2023-01-20T01:32:50;35.38;;;17.37;;
43325;SDS011;28920;59.862;30.636;2023-01-20T01:35:19;38.65;;;17.70;;
43325;SDS011;28920;59.862;30.636;2023-01-20T01:37:47;35.65;;;19.12;;
43325;SDS011;28920;59.862;30.636;2023-01-20T01:40:14;41.03;;;20.02;;
43325;SDS011;28920;59.862;30.636;2023-01-20T01:42:42;39.03;;;22.95;;
43325;SDS011;28920;59.862;30.636;2023-01-20T01:45:20;43.35;;;21.77;;
43325;SDS011;28920;59.862;30.636;2023-01-20T01:47:48;40.50;;;19.15;;
43325;SDS011;28920;59.862;30.636;2023-01-20T01:50:25;42.95;;;21.02;;
43325;SDS011;28920;59.862;30.636;2023-01-20T01:52:55;38.38;;;19.85;;
43325;SDS011;28920;59.862;30.636;2023-01-20T01:55:24;33.65;;;19.55;;
43325;SDS011;28920;59.862;30.636;2023-01-20T01:57:52;37.58;;;16.70;;
43325;SDS011;28920;59.862;30.636;2023-01-20T02:00:20;33.38;;;17.30;;
43325;SDS011;28920;59.862;30.636;2023-01-20T02:02:47;34.45;;;17.12;;
43325;SDS011;28920;59.862;30.636;2023-01-20T02:05:15;36.25;;;17.48;;
43325;SDS011;28920;59.862;30.636;2023-01-20T02:07:44;31.60;;;15.27;;
43325;SDS011;28920;59.862;30.636;2023-01-20T02:10:13;35.08;;;16.98;;
43325;SDS011;28920;59.862;30.636;2023-01-20T02:12:42;31.75;;;15.00;;
43325;SDS011;28920;59.862;30.636;2023-01-20T02:15:12;26.17;;;14.93;;
43325;SDS011;28920;59.862;30.636;2023-01-20T02:17:42;33.13;;;16.67;;
43325;SDS011;28920;59.862;30.636;2023-01-20T02:23:05;34.42;;;17.83;;
43325;SDS011;28920;59.862;30.636;2023-01-20T02:25:40;32.78;;;16.85;;
43325;SDS011;28920;59.862;30.636;2023-01-20T02:28:28;30.92;;;17.67;;
43325;SDS011;28920;59.862;30.636;2023-01-20T02:31:12;36.50;;;16.95;;
43325;SDS011;28920;59.862;30.636;2023-01-20T02:33:44;29.50;;;15.73;;
43325;SDS011;28920;59.862;30.636;2023-01-20T02:36:14;30.58;;;16.08;;
43325;SDS011;28920;59.862;30.636;2023-01-20T02:38:43;29.92;;;16.20;;
43325;SDS011;28920;59.862;30.636;2023-01-20T02:41:15;32.75;;;17.25;;
43325;SDS011;28920;59.862;30.636;2023-01-20T02:43:44;31.33;;;14.90;;
43325;SDS011;28920;59.862;30.636;2023-01-20T02:46:15;34.90;;;16.65;;
43325;SDS011;28920;59.862;30.636;2023-01-20T02:48:48;34.25;;;17.67;;
43325;SDS011;28920;59.862;30.636;2023-01-20T02:51:18;31.33;;;15.73;;
43325;SDS011;28920;59.862;30.636;2023-01-20T02:53:48;41.72;;;20.35;;
43325;SDS011;28920;59.862;30.636;2023-01-20T02:56:16;40.88;;;21.40;;
43325;SDS011;28920;59.862;30.636;2023-01-20T02:58:47;50.55;;;23.52;;
43325;SDS011;28920;59.862;30.636;2023-01-20T03:01:16;40.17;;;21.17;;
43325;SDS011;28920;59.862;30.636;2023-01-20T03:03:48;40.12;;;20.25;;
43325;SDS011;28920;59.862;30.636;2023-01-20T03:06:16;46.63;;;24.27;;
43325;SDS011;28920;59.862;30.636;2023-01-20T03:08:45;40.45;;;21.15;;
43325;SDS011;28920;59.862;30.636;2023-01-20T03:11:14;43.53;;;21.45;;
43325;SDS011;28920;59.862;30.636;2023-01-20T03:13:43;41.40;;;22.10;;
43325;SDS011;28920;59.862;30.636;2023-01-20T03:16:13;38.85;;;19.83;;
43325;SDS011;28920;59.862;30.636;2023-01-20T03:18:42;41.22;;;19.48;;
43325;SDS011;28920;59.862;30.636;2023-01-20T03:21:11;36.42;;;18.45;;
43325;SDS011;28920;59.862;30.636;2023-01-20T03:23:39;37.33;;;18.33;;
43325;SDS011;28920;59.862;30.636;2023-01-20T03:26:08;39.78;;;19.48;;
43325;SDS011;28920;59.862;30.636;2023-01-20T03:28:35;29.25;;;15.52;;
43325;SDS011;28920;59.862;30.636;2023-01-20T03:31:04;28.15;;;14.32;;
43325;SDS011;28920;59.862;30.636;2023-01-20T03:33:34;30.17;;;16.45;;
43325;SDS011;28920;59.862;30.636;2023-01-20T03:36:01;34.55;;;16.17;;
43325;SDS011;28920;59.862;30.636;2023-01-20T03:38:30;31.33;;;15.60;;
43325;SDS011;28920;59.862;30.636;2023-01-20T03:40:59;32.95;;;15.43;;
43325;SDS011;28920;59.862;30.636;2023-01-20T03:43:28;36.20;;;16.50;;
43325;SDS011;28920;59.862;30.636;2023-01-20T03:45:59;31.27;;;15.13;;
43325;SDS011;28920;59.862;30.636;2023-01-20T03:48:30;24.45;;;13.18;;
43325;SDS011;28920;59.862;30.636;2023-01-20T03:51:02;23.65;;;12.45;;
43325;SDS011;28920;59.862;30.636;2023-01-20T03:53:35;21.27;;;12.40;;
43325;SDS011;28920;59.862;30.636;2023-01-20T03:56:04;30.52;;;14.15;;
43325;SDS011;28920;59.862;30.636;2023-01-20T03:58:34;28.55;;;13.80;;
43325;SDS011;28920;59.862;30.636;2023-01-20T04:01:03;29.87;;;14.02;;
43325;SDS011;28920;59.862;30.636;2023-01-20T04:03:32;26.70;;;14.23;;
43325;SDS011;28920;59.862;30.636;2023-01-20T04:06:02;26.50;;;14.00;;
43325;SDS011;28920;59.862;30.636;2023-01-20T04:08:31;27.75;;;15.05;;
43325;SDS011;28920;59.862;30.636;2023-01-20T04:11:03;29.95;;;15.27;;
43325;SDS011;28920;59.862;30.636;2023-01-20T04:13:31;27.85;;;14.48;;
43325;SDS011;28920;59.862;30.636;2023-01-20T04:15:58;23.73;;;14.00;;
43325;SDS011;28920;59.862;30.636;2023-01-20T04:18:26;26.62;;;12.70;;
43325;SDS011;28920;59.862;30.636;2023-01-20T04:20:55;25.45;;;12.77;;
43325;SDS011;28920;59.862;30.636;2023-01-20T04:23:24;29.30;;;13.10;;
43325;SDS011;28920;59.862;30.636;2023-01-20T04:25:53;31.35;;;15.38;;
43325;SDS011;28920;59.862;30.636;2023-01-20T04:28:22;31.00;;;16.55;;
43325;SDS011;28920;59.862;30.636;2023-01-20T04:30:50;27.48;;;14.55;;
43325;SDS011;28920;59.862;30.636;2023-01-20T04:33:18;32.55;;;14.23;;
43325;SDS011;28920;59.862;30.636;2023-01-20T04:35:45;29.65;;;15.93;;
43325;SDS011;28920;59.862;30.636;2023-01-20T04:38:13;28.17;;;13.52;;
43325;SDS011;28920;59.862;30.636;2023-01-20T04:40:40;26.45;;;13.80;;
43325;SDS011;28920;59.862;30.636;2023-01-20T04:43:08;29.25;;;13.05;;
43325;SDS011;28920;59.862;30.636;2023-01-20T04:45:39;24.40;;;12.32;;
43325;SDS011;28920;59.862;30.636;2023-01-20T04:48:07;28.67;;;12.60;;
43325;SDS011;28920;59.862;30.636;2023-01-20T04:50:36;26.45;;;15.43;;
43325;SDS011;28920;59.862;30.636;2023-01-20T04:53:03;22.77;;;11.52;;
43325;SDS011;28920;59.862;30.636;2023-01-20T04:55:31;25.65;;;12.88;;
43325;SDS011;28920;59.862;30.636;2023-01-20T04:57:58;22.83;;;13.20;;
43325;SDS011;28920;59.862;30.636;2023-01-20T05:00:26;21.30;;;12.30;;
43325;SDS011;28920;59.862;30.636;2023-01-20T05:02:56;25.80;;;12.50;;
43325;SDS011;28920;59.862;30.636;2023-01-20T05:05:24;27.42;;;13.10;;
43325;SDS011;28920;59.862;30.636;2023-01-20T05:07:51;21.98;;;10.57;;
43325;SDS011;28920;59.862;30.636;2023-01-20T05:10:19;20.35;;;10.00;;
43325;SDS011;28920;59.862;30.636;2023-01-20T05:12:46;23.02;;;12.37;;
43325;SDS011;28920;59.862;30.636;2023-01-20T05:15:13;21.77;;;10.88;;
43325;SDS011;28920;59.862;30.636;2023-01-20T05:17:41;23.75;;;13.55;;
43325;SDS011;28920;59.862;30.636;2023-01-20T05:20:10;22.70;;;10.63;;
43325;SDS011;28920;59.862;30.636;2023-01-20T05:22:37;24.10;;;10.98;;
43325;SDS011;28920;59.862;30.636;2023-01-20T05:25:05;21.67;;;12.07;;
43325;SDS011;28920;59.862;30.636;2023-01-20T05:27:33;21.15;;;11.45;;
43325;SDS011;28920;59.862;30.636;2023-01-20T05:30:00;21.90;;;12.23;;
43325;SDS011;28920;59.862;30.636;2023-01-20T05:32:28;21.00;;;10.60;;
43325;SDS011;28920;59.862;30.636;2023-01-20T05:34:56;20.35;;;11.80;;
43325;SDS011;28920;59.862;30.636;2023-01-20T05:37:25;30.27;;;16.08;;
43325;SDS011;28920;59.862;30.636;2023-01-20T05:39:52;42.67;;;20.58;;
43325;SDS011;28920;59.862;30.636;2023-01-20T05:42:20;28.48;;;14.27;;
43325;SDS011;28920;59.862;30.636;2023-01-20T05:44:47;26.98;;;13.98;;
43325;SDS011;28920;59.862;30.636;2023-01-20T05:47:15;27.27;;;12.35;;
43325;SDS011;28920;59.862;30.636;2023-01-20T05:49:42;24.35;;;13.35;;
43325;SDS011;28920;59.862;30.636;2023-01-20T05:52:10;23.80;;;13.25;;
43325;SDS011;28920;59.862;30.636;2023-01-20T05:54:39;23.30;;;11.15;;
43325;SDS011;28920;59.862;30.636;2023-01-20T05:57:06;25.58;;;11.77;;
43325;SDS011;28920;59.862;30.636;2023-01-20T05:59:33;25.62;;;12.32;;
43325;SDS011;28920;59.862;30.636;2023-01-20T06:02:01;24.52;;;13.10;;
43325;SDS011;28920;59.862;30.636;2023-01-20T06:04:29;25.70;;;13.80;;
43325;SDS011;28920;59.862;30.636;2023-01-20T06:06:56;23.08;;;12.43;;
43325;SDS011;28920;59.862;30.636;2023-01-20T06:09:23;18.58;;;10.52;;
43325;SDS011;28920;59.862;30.636;2023-01-20T06:11:52;20.15;;;13.05;;
43325;SDS011;28920;59.862;30.636;2023-01-20T06:14:20;19.75;;;10.77;;
43325;SDS011;28920;59.862;30.636;2023-01-20T06:16:47;22.58;;;10.68;;
43325;SDS011;28920;59.862;30.636;2023-01-20T06:19:16;16.33;;;8.90;;
43325;SDS011;28920;59.862;30.636;2023-01-20T06:21:43;20.10;;;9.65;;
43325;SDS011;28920;59.862;30.636;2023-01-20T06:24:10;16.00;;;10.02;;
43325;SDS011;28920;59.862;30.636;2023-01-20T06:26:38;16.30;;;10.13;;
43325;SDS011;28920;59.862;30.636;2023-01-20T06:29:07;21.92;;;12.82;;
43325;SDS011;28920;59.862;30.636;2023-01-20T06:31:34;17.10;;;10.32;;
43325;SDS011;28920;59.862;30.636;2023-01-20T06:34:02;21.60;;;11.75;;
43325;SDS011;28920;59.862;30.636;2023-01-20T06:36:29;34.25;;;17.45;;
43325;SDS011;28920;59.862;30.636;2023-01-20T06:38:56;25.98;;;13.35;;
43325;SDS011;28920;59.862;30.636;2023-01-20T06:41:24;22.23;;;14.05;;
43325;SDS011;28920;59.862;30.636;2023-01-20T06:43:51;22.62;;;11.43;;
43325;SDS011;28920;59.862;30.636;2023-01-20T06:46:20;17.75;;;9.63;;
43325;SDS011;28920;59.862;30.636;2023-01-20T06:48:48;22.35;;;12.25;;
43325;SDS011;28920;59.862;30.636;2023-01-20T06:51:16;24.55;;;13.20;;
43325;SDS011;28920;59.862;30.636;2023-01-20T06:53:44;22.73;;;10.95;;
43325;SDS011;28920;59.862;30.636;2023-01-20T06:56:12;19.83;;;10.38;;
43325;SDS011;28920;59.862;30.636;2023-01-20T06:58:40;22.20;;;11.43;;
43325;SDS011;28920;59.862;30.636;2023-01-20T07:01:09;24.42;;;12.98;;
43325;SDS011;28920;59.862;30.636;2023-01-20T07:03:39;28.00;;;13.77;;
43325;SDS011;28920;59.862;30.636;2023-01-20T07:06:12;30.42;;;13.90;;
43325;SDS011;28920;59.862;30.636;2023-01-20T07:08:41;28.23;;;14.87;;
43325;SDS011;28920;59.862;30.636;2023-01-20T07:11:08;21.58;;;11.68;;
43325;SDS011;28920;59.862;30.636;2023-01-20T07:13:35;22.90;;;12.50;;
43325;SDS011;28920;59.862;30.636;2023-01-20T07:16:03;23.23;;;11.55;;
43325;SDS011;28920;59.862;30.636;2023-01-20T07:18:31;26.95;;;14.98;;
43325;SDS011;28920;59.862;30.636;2023-01-20T07:20:59;26.83;;;14.70;;
43325;SDS011;28920;59.862;30.636;2023-01-20T07:23:28;33.58;;;20.33;;
43325;SDS011;28920;59.862;30.636;2023-01-20T07:25:57;38.63;;;21.08;;
43325;SDS011;28920;59.862;30.636;2023-01-20T07:28:24;44.22;;;20.37;;
43325;SDS011;28920;59.862;30.636;2023-01-20T07:30:52;33.88;;;18.25;;
43325;SDS011;28920;59.862;30.636;2023-01-20T07:33:19;30.42;;;16.17;;
43325;SDS011;28920;59.862;30.636;2023-01-20T07:35:49;30.20;;;16.17;;
43325;SDS011;28920;59.862;30.636;2023-01-20T07:38:19;30.80;;;15.67;;
43325;SDS011;28920;59.862;30.636;2023-01-20T07:40:46;28.83;;;13.48;;
43325;SDS011;28920;59.862;30.636;2023-01-20T07:43:13;19.62;;;10.35;;
43325;SDS011;28920;59.862;30.636;2023-01-20T07:45:41;16.00;;;8.23;;
43325;SDS011;28920;59.862;30.636;2023-01-20T07:48:08;14.38;;;8.10;;
43325;SDS011;28920;59.862;30.636;2023-01-20T07:50:35;14.63;;;7.32;;
43325;SDS011;28920;59.862;30.636;2023-01-20T07:53:03;17.65;;;8.82;;
43325;SDS011;28920;59.862;30.636;2023-01-20T07:55:33;13.62;;;8.07;;
43325;SDS011;28920;59.862;30.636;2023-01-20T07:58:00;13.43;;;8.18;;
43325;SDS011;28920;59.862;30.636;2023-01-20T08:00:28;13.68;;;8.18;;
43325;SDS011;28920;59.862;30.636;2023-01-20T08:02:55;17.62;;;10.27;;
43325;SDS011;28920;59.862;30.636;2023-01-20T08:05:23;17.52;;;9.55;;
43325;SDS011;28920;59.862;30.636;2023-01-20T08:07:50;15.70;;;10.05;;
43325;SDS011;28920;59.862;30.636;2023-01-20T08:10:18;18.70;;;9.25;;
43325;SDS011;28920;59.862;30.636;2023-01-20T08:12:47;19.73;;;9.77;;
43325;SDS011;28920;59.862;30.636;2023-01-20T08:15:14;16.27;;;9.82;;
43325;SDS011;28920;59.862;30.636;2023-01-20T08:17:42;18.15;;;10.77;;
43325;SDS011;28920;59.862;30.636;2023-01-20T08:20:09;21.50;;;12.07;;
43325;SDS011;28920;59.862;30.636;2023-01-20T08:22:37;22.92;;;13.00;;
43325;SDS011;28920;59.862;30.636;2023-01-20T08:25:05;16.37;;;11.50;;
43325;SDS011;28920;59.862;30.636;2023-01-20T08:27:32;24.08;;;14.02;;
43325;SDS011;28920;59.862;30.636;2023-01-20T08:30:01;19.45;;;12.40;;
43325;SDS011;28920;59.862;30.636;2023-01-20T08:32:29;17.52;;;11.23;;
43325;SDS011;28920;59.862;30.636;2023-01-20T08:34:56;20.83;;;11.93;;
43325;SDS011;28920;59.862;30.636;2023-01-20T08:37:23;22.08;;;12.35;;
43325;SDS011;28920;59.862;30.636;2023-01-20T08:39:51;17.48;;;10.07;;
43325;SDS011;28920;59.862;30.636;2023-01-20T08:42:18;17.83;;;9.60;;
43325;SDS011;28920;59.862;30.636;2023-01-20T08:44:46;17.23;;;9.68;;
43325;SDS011;28920;59.862;30.636;2023-01-20T08:47:19;16.77;;;9.15;;
43325;SDS011;28920;59.862;30.636;2023-01-20T08:49:46;16.15;;;9.68;;
43325;SDS011;28920;59.862;30.636;2023-01-20T08:52:13;16.52;;;8.90;;
43325;SDS011;28920;59.862;30.636;2023-01-20T08:54:41;12.40;;;7.75;;
43325;SDS011;28920;59.862;30.636;2023-01-20T08:57:08;16.25;;;10.40;;
43325;SDS011;28920;59.862;30.636;2023-01-20T08:59:35;20.48;;;9.30;;
43325;SDS011;28920;59.862;30.636;2023-01-20T09:02:03;20.50;;;9.82;;
43325;SDS011;28920;59.862;30.636;2023-01-20T09:04:32;17.75;;;9.32;;
43325;SDS011;28920;59.862;30.636;2023-01-20T09:07:01;20.27;;;9.20;;
43325;SDS011;28920;59.862;30.636;2023-01-20T09:09:29;20.25;;;9.32;;
43325;SDS011;28920;59.862;30.636;2023-01-20T09:11:57;16.70;;;9.30;;
43325;SDS011;28920;59.862;30.636;2023-01-20T09:14:24;19.83;;;8.82;;
43325;SDS011;28920;59.862;30.636;2023-01-20T09:16:52;15.73;;;9.32;;
43325;SDS011;28920;59.862;30.636;2023-01-20T09:19:19;24.77;;;10.60;;
43325;SDS011;28920;59.862;30.636;2023-01-20T09:21:48;16.80;;;8.77;;
43325;SDS011;28920;59.862;30.636;2023-01-20T09:24:15;17.45;;;9.32;;
43325;SDS011;28920;59.862;30.636;2023-01-20T09:26:43;18.02;;;8.50;;
43325;SDS011;28920;59.862;30.636;2023-01-20T09:29:11;13.65;;;7.90;;
43325;SDS011;28920;59.862;30.636;2023-01-20T09:31:39;17.33;;;8.98;;
43325;SDS011;28920;59.862;30.636;2023-01-20T09:34:08;15.48;;;7.97;;
43325;SDS011;28920;59.862;30.636;2023-01-20T09:36:36;17.27;;;9.95;;
43325;SDS011;28920;59.862;30.636;2023-01-20T09:39:05;22.45;;;11.10;;
43325;SDS011;28920;59.862;30.636;2023-01-20T09:41:50;16.92;;;8.32;;
43325;SDS011;28920;59.862;30.636;2023-01-20T09:44:41;15.60;;;8.88;;
43325;SDS011;28920;59.862;30.636;2023-01-20T09:47:15;16.30;;;9.15;;
43325;SDS011;28920;59.862;30.636;2023-01-20T09:49:51;22.42;;;8.18;;
43325;SDS011;28920;59.862;30.636;2023-01-20T09:52:37;17.05;;;8.85;;
43325;SDS011;28920;59.862;30.636;2023-01-20T09:55:25;13.95;;;7.75;;
43325;SDS011;28920;59.862;30.636;2023-01-20T09:57:56;16.33;;;7.68;;
43325;SDS011;28920;59.862;30.636;2023-01-20T10:00:25;17.30;;;7.68;;
43325;SDS011;28920;59.862;30.636;2023-01-20T10:02:57;15.25;;;9.43;;
43325;SDS011;28920;59.862;30.636;2023-01-20T10:05:26;13.55;;;7.65;;
43325;SDS011;28920;59.862;30.636;2023-01-20T10:07:59;15.65;;;7.20;;
43325;SDS011;28920;59.862;30.636;2023-01-20T10:10:29;12.93;;;6.85;;
43325;SDS011;28920;59.862;30.636;2023-01-20T10:13:01;14.77;;;7.45;;
43325;SDS011;28920;59.862;30.636;2023-01-20T10:15:31;12.40;;;7.18;;
43325;SDS011;28920;59.862;30.636;2023-01-20T10:18:01;12.93;;;7.03;;
43325;SDS011;28920;59.862;30.636;2023-01-20T10:20:32;12.30;;;7.45;;
43325;SDS011;28920;59.862;30.636;2023-01-20T10:23:02;14.30;;;7.40;;
43325;SDS011;28920;59.862;30.636;2023-01-20T10:25:34;12.40;;;7.47;;
43325;SDS011;28920;59.862;30.636;2023-01-20T10:28:06;15.40;;;8.80;;
43325;SDS011;28920;59.862;30.636;2023-01-20T10:30:36;23.80;;;11.20;;
43325;SDS011;28920;59.862;30.636;2023-01-20T10:33:05;12.13;;;7.03;;
43325;SDS011;28920;59.862;30.636;2023-01-20T10:35:35;14.63;;;8.10;;
43325;SDS011;28920;59.862;30.636;2023-01-20T10:38:04;10.85;;;6.37;;
43325;SDS011;28920;59.862;30.636;2023-01-20T10:40:35;12.05;;;7.85;;
43325;SDS011;28920;59.862;30.636;2023-01-20T10:43:08;25.73;;;12.98;;
43325;SDS011;28920;59.862;30.636;2023-01-20T10:45:37;23.35;;;12.30;;
43325;SDS011;28920;59.862;30.636;2023-01-20T10:48:14;12.63;;;8.80;;
43325;SDS011;28920;59.862;30.636;2023-01-20T10:50:46;9.85;;;5.65;;
43325;SDS011;28920;59.862;30.636;2023-01-20T10:55:49;13.55;;;6.57;;
43325;SDS011;28920;59.862;30.636;2023-01-20T10:58:20;15.52;;;7.22;;
43325;SDS011;28920;59.862;30.636;2023-01-20T11:00:48;11.95;;;5.90;;
43325;SDS011;28920;59.862;30.636;2023-01-20T11:03:16;15.45;;;7.50;;
43325;SDS011;28920;59.862;30.636;2023-01-20T11:05:45;12.52;;;8.05;;
43325;SDS011;28920;59.862;30.636;2023-01-20T11:08:14;17.65;;;8.43;;
43325;SDS011;28920;59.862;30.636;2023-01-20T11:10:42;13.45;;;7.82;;
43325;SDS011;28920;59.862;30.636;2023-01-20T11:13:11;15.13;;;8.18;;
43325;SDS011;28920;59.862;30.636;2023-01-20T11:15:40;12.75;;;6.97;;
43325;SDS011;28920;59.862;30.636;2023-01-20T11:20:55;11.57;;;6.95;;
43325;SDS011;28920;59.862;30.636;2023-01-20T11:23:24;14.70;;;6.87;;
43325;SDS011;28920;59.862;30.636;2023-01-20T11:25:53;12.10;;;5.62;;
43325;SDS011;28920;59.862;30.636;2023-01-20T11:28:22;11.75;;;5.90;;
43325;SDS011;28920;59.862;30.636;2023-01-20T11:30:51;9.52;;;6.43;;
43325;SDS011;28920;59.862;30.636;2023-01-20T11:33:20;11.45;;;6.18;;
43325;SDS011;28920;59.862;30.636;2023-01-20T11:36:00;16.73;;;10.95;;
43325;SDS011;28920;59.862;30.636;2023-01-20T11:38:28;14.07;;;7.82;;
43325;SDS011;28920;59.862;30.636;2023-01-20T11:40:56;18.33;;;11.23;;
43325;SDS011;28920;59.862;30.636;2023-01-20T11:43:29;17.23;;;9.70;;
43325;SDS011;28920;59.862;30.636;2023-01-20T11:46:10;14.35;;;8.50;;
43325;SDS011;28920;59.862;30.636;2023-01-20T11:48:37;11.45;;;6.80;;
43325;SDS011;28920;59.862;30.636;2023-01-20T11:51:12;8.80;;;6.80;;
43325;SDS011;28920;59.862;30.636;2023-01-20T11:53:42;10.95;;;5.43;;
43325;SDS011;28920;59.862;30.636;2023-01-20T11:56:14;9.07;;;5.12;;
43325;SDS011;28920;59.862;30.636;2023-01-20T11:58:49;8.18;;;5.12;;
43325;SDS011;28920;59.862;30.636;2023-01-20T12:01:19;9.25;;;5.32;;
43325;SDS011;28920;59.862;30.636;2023-01-20T12:04:10;9.45;;;4.47;;
43325;SDS011;28920;59.862;30.636;2023-01-20T12:06:45;7.70;;;4.72;;
43325;SDS011;28920;59.862;30.636;2023-01-20T12:09:17;7.03;;;4.45;;
43325;SDS011;28920;59.862;30.636;2023-01-20T12:11:49;7.55;;;4.10;;
43325;SDS011;28920;59.862;30.636;2023-01-20T12:14:20;6.65;;;4.22;;
43325;SDS011;28920;59.862;30.636;2023-01-20T12:16:55;7.10;;;4.22;;
43325;SDS011;28920;59.862;30.636;2023-01-20T12:19:25;7.10;;;3.87;;
43325;SDS011;28920;59.862;30.636;2023-01-20T12:21:53;14.73;;;7.80;;
43325;SDS011;28920;59.862;30.636;2023-01-20T12:24:24;14.40;;;8.52;;
43325;SDS011;28920;59.862;30.636;2023-01-20T12:27:17;14.00;;;7.47;;
43325;SDS011;28920;59.862;30.636;2023-01-20T12:29:48;12.27;;;8.07;;
43325;SDS011;28920;59.862;30.636;2023-01-20T12:32:18;8.52;;;5.65;;
43325;SDS011;28920;59.862;30.636;2023-01-20T12:34:45;12.68;;;5.75;;
43325;SDS011;28920;59.862;30.636;2023-01-20T12:37:14;9.45;;;4.68;;
43325;SDS011;28920;59.862;30.636;2023-01-20T12:42:35;8.32;;;4.60;;
43325;SDS011;28920;59.862;30.636;2023-01-20T12:45:14;11.07;;;6.72;;
43325;SDS011;28920;59.862;30.636;2023-01-20T12:47:50;7.12;;;4.50;;
43325;SDS011;28920;59.862;30.636;2023-01-20T12:50:32;8.50;;;4.62;;
43325;SDS011;28920;59.862;30.636;2023-01-20T12:53:08;9.27;;;4.85;;
43325;SDS011;28920;59.862;30.636;2023-01-20T12:55:43;8.15;;;5.05;;
43325;SDS011;28920;59.862;30.636;2023-01-20T12:58:16;8.55;;;4.82;;
43325;SDS011;28920;59.862;30.636;2023-01-20T13:00:52;7.62;;;4.72;;
43325;SDS011;28920;59.862;30.636;2023-01-20T13:03:37;7.28;;;4.62;;
43325;SDS011;28920;59.862;30.636;2023-01-20T13:06:12;8.32;;;3.92;;
43325;SDS011;28920;59.862;30.636;2023-01-20T13:08:49;9.40;;;4.32;;
43325;SDS011;28920;59.862;30.636;2023-01-20T13:11:22;6.07;;;3.90;;
43325;SDS011;28920;59.862;30.636;2023-01-20T13:13:58;7.57;;;4.68;;
43325;SDS011;28920;59.862;30.636;2023-01-20T13:16:31;5.37;;;4.28;;
43325;SDS011;28920;59.862;30.636;2023-01-20T13:19:00;8.35;;;4.53;;
43325;SDS011;28920;59.862;30.636;2023-01-20T13:21:33;9.18;;;4.75;;
43325;SDS011;28920;59.862;30.636;2023-01-20T13:24:01;5.30;;;4.22;;
43325;SDS011;28920;59.862;30.636;2023-01-20T13:26:29;6.80;;;5.10;;
43325;SDS011;28920;59.862;30.636;2023-01-20T13:28:57;17.87;;;9.77;;
43325;SDS011;28920;59.862;30.636;2023-01-20T13:31:29;15.20;;;8.85;;
43325;SDS011;28920;59.862;30.636;2023-01-20T13:36:41;35.05;;;25.33;;
43325;SDS011;28920;59.862;30.636;2023-01-20T13:39:37;35.63;;;28.60;;
43325;SDS011;28920;59.862;30.636;2023-01-20T13:42:18;24.05;;;17.40;;
43325;SDS011;28920;59.862;30.636;2023-01-20T13:47:46;9.18;;;5.95;;
43325;SDS011;28920;59.862;30.636;2023-01-20T13:50:25;17.62;;;14.10;;
43325;SDS011;28920;59.862;30.636;2023-01-20T13:53:14;13.35;;;9.70;;
43325;SDS011;28920;59.862;30.636;2023-01-20T13:56:05;8.27;;;5.30;;
43325;SDS011;28920;59.862;30.636;2023-01-20T13:58:49;10.98;;;6.10;;
43325;SDS011;28920;59.862;30.636;2023-01-20T14:01:17;10.07;;;6.40;;
43325;SDS011;28920;59.862;30.636;2023-01-20T14:03:44;12.65;;;8.10;;
43325;SDS011;28920;59.862;30.636;2023-01-20T14:06:26;16.42;;;10.50;;
43325;SDS011;28920;59.862;30.636;2023-01-20T14:08:55;22.15;;;14.35;;
43325;SDS011;28920;59.862;30.636;2023-01-20T14:11:23;36.22;;;19.23;;
43325;SDS011;28920;59.862;30.636;2023-01-20T14:13:51;18.62;;;11.60;;
43325;SDS011;28920;59.862;30.636;2023-01-20T14:16:19;13.00;;;7.87;;
43325;SDS011;28920;59.862;30.636;2023-01-20T14:18:47;12.90;;;7.97;;
43325;SDS011;28920;59.862;30.636;2023-01-20T14:21:16;10.75;;;7.07;;
43325;SDS011;28920;59.862;30.636;2023-01-20T14:23:44;13.75;;;9.93;;
43325;SDS011;28920;59.862;30.636;2023-01-20T14:26:13;19.37;;;14.75;;
43325;SDS011;28920;59.862;30.636;2023-01-20T14:28:47;12.20;;;8.25;;
43325;SDS011;28920;59.862;30.636;2023-01-20T14:31:16;11.95;;;8.27;;
43325;SDS011;28920;59.862;30.636;2023-01-20T14:33:48;9.50;;;6.93;;
43325;SDS011;28920;59.862;30.636;2023-01-20T14:36:17;9.02;;;6.53;;
43325;SDS011;28920;59.862;30.636;2023-01-20T14:38:47;11.98;;;6.00;;
43325;SDS011;28920;59.862;30.636;2023-01-20T14:41:23;7.70;;;5.55;;
43325;SDS011;28920;59.862;30.636;2023-01-20T14:43:50;10.32;;;6.18;;
43325;SDS011;28920;59.862;30.636;2023-01-20T14:46:18;7.32;;;5.20;;
43325;SDS011;28920;59.862;30.636;2023-01-20T14:48:45;11.98;;;5.75;;